Time;durP1;ratioP1;P1;durP2;ratioP2;P2;SDS_P1;SDS_P2;PMS_P1;PMS_P2;Temp;Humidity;BMP_temperature;BMP_pressure;BME280_temperature;BME280_humidity;BME280_pressure;Samples;Min_cycle;Max_cycle;Signal;HPM_P1;HPM_P2
2022/08/30 00:01:28;;;;;;;0.10;0.10;;;21.40;99.90;;;;;;4924915;29;20051;-85
2022/08/30 00:03:57;;;;;;;0.10;0.10;;;21.40;99.90;;;;;;4906025;29;20024;-89
2022/08/30 00:06:23;;;;;;;0.17;0.17;;;21.40;99.90;;;;;;4918043;29;20016;-81
2022/08/30 00:08:50;;;;;;;0.10;0.10;;;21.30;99.90;;;;;;4912412;29;20196;-87
2022/08/30 00:11:20;;;;;;;0.08;0.08;;;21.40;99.90;;;;;;4896545;29;20064;-85
2022/08/30 00:13:49;;;;;;;0.10;0.10;;;21.30;99.90;;;;;;4912262;29;20056;-90
2022/08/30 00:16:16;;;;;;;0.10;0.10;;;21.40;99.90;;;;;;4908346;29;20027;-79
2022/08/30 00:18:42;;;;;;;0.10;0.10;;;18.90;99.90;;;;;;4908394;29;20346;-78
2022/08/30 00:21:09;;;;;;;2.25;1.70;;;21.40;99.90;;;;;;4892713;29;20365;-81
2022/08/30 00:23:36;;;;;;;0.10;0.10;;;21.40;99.90;;;;;;4910607;29;20285;-84
2022/08/30 00:26:02;;;;;;;0.10;0.10;;;21.40;99.90;;;;;;4908718;29;20035;-87
2022/08/30 00:28:29;;;;;;;1.23;1.13;;;21.40;99.90;;;;;;4907522;29;20080;-85
2022/08/30 00:30:55;;;;;;;0.65;0.65;;;21.30;99.90;;;;;;4908744;29;20313;-87
2022/08/30 00:33:22;;;;;;;0.10;0.10;;;21.40;99.90;;;;;;4909737;29;20020;-89
2022/08/30 00:35:48;;;;;;;0.10;0.10;;;22.10;99.90;;;;;;4909573;29;20029;-88
2022/08/30 00:38:14;;;;;;;0.28;0.28;;;21.40;99.90;;;;;;4908208;29;20382;-88
2022/08/30 00:40:43;;;;;;;0.20;0.20;;;21.50;99.90;;;;;;4909280;29;20612;-83
2022/08/30 00:43:17;;;;;;;0.10;0.10;;;21.50;99.90;;;;;;4909600;29;20398;-91
2022/08/30 00:45:43;;;;;;;0.17;0.17;;;21.30;99.90;;;;;;4908980;29;20035;-86
2022/08/30 00:48:09;;;;;;;0.00;0.00;;;21.40;99.90;;;;;;4908448;29;20468;-88
2022/08/30 00:50:47;;;;;;;0.10;0.10;;;21.40;99.90;;;;;;4907375;29;20048;-78
2022/08/30 00:53:24;;;;;;;0.25;0.25;;;21.40;99.90;;;;;;4909148;29;20076;-79
2022/08/30 00:55:51;;;;;;;0.10;0.10;;;21.40;99.90;;;;;;4908809;29;20164;-81
2022/08/30 00:58:21;;;;;;;0.10;0.10;;;21.40;99.90;;;;;;4909460;29;20024;-86
2022/08/30 01:00:49;;;;;;;0.85;0.85;;;21.40;99.90;;;;;;4910866;29;20275;-87
2022/08/30 01:03:17;;;;;;;0.32;0.32;;;21.40;99.90;;;;;;4910780;29;20095;-94
2022/08/30 01:05:43;;;;;;;0.55;0.55;;;21.30;99.90;;;;;;4910329;29;20296;-86
2022/08/30 01:08:09;;;;;;;1.75;1.65;;;21.30;99.90;;;;;;4910584;29;20092;-93
2022/08/30 01:10:36;;;;;;;0.10;0.10;;;21.40;99.90;;;;;;4909511;29;20035;-90
2022/08/30 01:13:02;;;;;;;1.65;1.55;;;21.30;99.90;;;;;;4913490;29;20031;-89
2022/08/30 01:15:29;;;;;;;0.10;0.10;;;21.30;99.90;;;;;;4915201;29;20110;-83
2022/08/30 01:17:55;;;;;;;0.35;0.35;;;21.30;99.90;;;;;;4922234;29;20012;-85
2022/08/30 01:20:42;;;;;;;2.83;2.72;;;21.30;99.90;;;;;;4923859;29;20032;-86
2022/08/30 01:23:13;;;;;;;0.20;0.20;;;18.30;99.90;;;;;;4923865;29;20112;-92
2022/08/30 01:25:41;;;;;;;2.03;1.92;;;23.50;99.90;;;;;;4925555;29;20023;-80
2022/08/30 01:28:17;;;;;;;0.10;0.10;;;21.70;99.90;;;;;;4915107;29;20040;-93
2022/08/30 01:30:43;;;;;;;0.52;0.52;;;18.10;99.90;;;;;;4919201;29;20267;-77
2022/08/30 01:33:10;;;;;;;0.20;0.20;;;21.30;99.90;;;;;;4908357;29;20012;-80
2022/08/30 01:36:01;;;;;;;0.80;0.80;;;21.10;99.90;;;;;;4907265;29;20032;-82
2022/08/30 01:38:43;;;;;;;0.10;0.10;;;21.20;99.90;;;;;;4908562;29;20028;-92
2022/08/30 01:41:11;;;;;;;2.28;1.40;;;21.20;99.90;;;;;;4907253;29;20432;-81
2022/08/30 01:43:37;;;;;;;0.50;0.50;;;21.30;99.90;;;;;;4908817;29;20535;-84
2022/08/30 01:46:04;;;;;;;0.10;0.10;;;21.30;99.90;;;;;;4907753;29;20082;-86
2022/08/30 01:48:30;;;;;;;0.15;0.15;;;21.30;99.90;;;;;;4907354;29;20374;-81
2022/08/30 01:50:55;;;;;;;0.10;0.10;;;21.20;99.90;;;;;;4906780;29;20139;-78
2022/08/30 01:53:21;;;;;;;0.10;0.10;;;21.30;99.90;;;;;;4890470;29;20753;-91
2022/08/30 01:55:47;;;;;;;0.08;0.08;;;21.30;99.90;;;;;;4906674;29;20032;-80
2022/08/30 01:58:13;;;;;;;0.47;0.47;;;21.20;99.90;;;;;;4906534;29;20475;-89
2022/08/30 02:00:39;;;;;;;0.10;0.10;;;21.70;99.90;;;;;;4907432;29;20028;-87
2022/08/30 02:03:06;;;;;;;2.00;1.95;;;21.30;99.90;;;;;;4906693;29;20031;-89
2022/08/30 02:05:32;;;;;;;0.32;0.32;;;21.30;99.90;;;;;;4906570;29;20140;-81
2022/08/30 02:07:58;;;;;;;0.22;0.22;;;21.30;99.90;;;;;;4889466;29;20031;-88
2022/08/30 02:10:24;;;;;;;0.10;0.10;;;21.30;99.90;;;;;;4907341;29;20061;-85
2022/08/30 02:12:50;;;;;;;0.40;0.40;;;22.20;99.90;;;;;;4907061;29;20024;-89
2022/08/30 02:15:16;;;;;;;0.10;0.10;;;20.60;99.90;;;;;;4907202;29;20039;-76
2022/08/30 02:17:42;;;;;;;0.10;0.10;;;21.40;99.90;;;;;;4906384;29;20016;-82
2022/08/30 02:20:09;;;;;;;0.10;0.10;;;21.40;99.90;;;;;;4905995;29;20574;-90
2022/08/30 02:22:35;;;;;;;0.10;0.10;;;21.40;99.90;;;;;;4907519;29;20033;-86
2022/08/30 02:25:02;;;;;;;0.10;0.10;;;21.70;99.90;;;;;;4907063;29;20032;-93
2022/08/30 02:27:28;;;;;;;0.60;0.60;;;21.40;99.90;;;;;;4907417;29;20020;-85
2022/08/30 02:29:54;;;;;;;0.10;0.10;;;21.30;99.90;;;;;;4889942;29;20052;-78
2022/08/30 02:32:20;;;;;;;0.10;0.10;;;21.30;99.90;;;;;;4907509;29;20028;-80
2022/08/30 02:34:46;;;;;;;0.10;0.10;;;21.40;99.90;;;;;;4903356;29;20315;-78
2022/08/30 02:37:12;;;;;;;0.93;0.93;;;21.30;99.90;;;;;;4904320;29;20491;-82
2022/08/30 02:39:37;;;;;;;0.10;0.10;;;21.30;99.90;;;;;;4910155;29;20043;-95
2022/08/30 02:42:04;;;;;;;0.10;0.10;;;21.30;99.90;;;;;;4913950;29;20029;-93
2022/08/30 02:44:29;;;;;;;0.00;0.00;;;21.60;99.90;;;;;;4915126;29;20063;-88
2022/08/30 02:46:55;;;;;;;0.10;0.10;;;21.30;99.90;;;;;;4915948;29;20075;-87
2022/08/30 02:49:21;;;;;;;0.35;0.35;;;21.30;99.90;;;;;;4913331;29;20041;-93
2022/08/30 02:51:47;;;;;;;5.57;2.30;;;21.30;99.90;;;;;;4895907;29;20032;-90
2022/08/30 02:54:18;;;;;;;0.05;0.05;;;21.30;99.90;;;;;;4909997;29;20028;-90
2022/08/30 02:56:51;;;;;;;0.20;0.20;;;21.30;99.90;;;;;;4910577;29;20259;-78
2022/08/30 02:59:19;;;;;;;0.40;0.40;;;21.40;99.90;;;;;;4910789;29;20128;-79
2022/08/30 03:01:44;;;;;;;0.10;0.10;;;21.30;99.90;;;;;;4913156;29;20028;-81
2022/08/30 03:04:11;;;;;;;0.30;0.30;;;21.10;99.90;;;;;;4914386;29;20032;-84
2022/08/30 03:06:37;;;;;;;1.33;1.27;;;22.70;99.90;;;;;;4917566;29;20032;-81
2022/08/30 03:09:14;;;;;;;0.32;0.30;;;21.10;99.90;;;;;;4902286;29;20043;-80
2022/08/30 03:11:41;;;;;;;0.10;0.10;;;22.70;99.90;;;;;;4933000;29;20029;-74
2022/08/30 03:14:08;;;;;;;0.00;0.00;;;20.90;99.90;;;;;;4914111;29;20672;-76
2022/08/30 03:16:34;;;;;;;0.20;0.20;;;21.00;99.90;;;;;;4911583;29;20051;-92
2022/08/30 03:19:00;;;;;;;0.05;0.05;;;21.00;99.90;;;;;;4915547;29;20033;-81
2022/08/30 03:21:26;;;;;;;0.40;0.40;;;21.10;99.90;;;;;;4910140;29;20050;-83
2022/08/30 03:23:53;;;;;;;1.40;1.30;;;21.10;99.90;;;;;;4911046;29;20020;-88
2022/08/30 03:26:18;;;;;;;0.10;0.10;;;21.10;99.90;;;;;;4909970;29;20032;-81
2022/08/30 03:28:44;;;;;;;0.10;0.10;;;21.00;99.90;;;;;;4909667;29;20055;-83
2022/08/30 03:31:11;;;;;;;0.10;0.10;;;21.10;99.90;;;;;;4909035;29;20043;-85
2022/08/30 03:33:39;;;;;;;0.20;0.20;;;21.10;99.90;;;;;;4913254;29;20091;-94
2022/08/30 03:36:06;;;;;;;0.28;0.28;;;21.00;99.90;;;;;;4910381;29;20051;-85
2022/08/30 03:38:32;;;;;;;0.10;0.10;;;20.90;99.90;;;;;;4910976;29;20043;-89
2022/08/30 03:40:57;;;;;;;0.10;0.10;;;21.00;99.90;;;;;;4912775;29;20028;-85
2022/08/30 03:43:24;;;;;;;0.17;0.17;;;21.00;99.90;;;;;;4911070;29;20455;-77
2022/08/30 03:45:50;;;;;;;0.10;0.10;;;21.00;99.90;;;;;;4914848;29;20338;-92
2022/08/30 03:48:16;;;;;;;0.10;0.10;;;21.70;99.90;;;;;;4894829;29;20044;-76
2022/08/30 03:50:42;;;;;;;0.10;0.10;;;21.10;99.90;;;;;;4910736;29;20323;-83
2022/08/30 03:53:08;;;;;;;0.10;0.10;;;21.20;99.90;;;;;;4914085;29;20020;-89
2022/08/30 03:55:35;;;;;;;1.17;1.17;;;22.40;99.90;;;;;;4918945;29;20031;-77
2022/08/30 03:58:01;;;;;;;5.85;2.65;;;21.20;99.90;;;;;;4914543;29;20099;-82
2022/08/30 04:00:27;;;;;;;1.65;1.30;;;21.20;99.90;;;;;;4900850;29;20530;-87
2022/08/30 04:02:53;;;;;;;0.43;0.43;;;21.20;99.90;;;;;;4918186;29;20028;-83
2022/08/30 04:05:19;;;;;;;0.10;0.10;;;21.30;99.90;;;;;;4905211;29;20024;-83
2022/08/30 04:07:45;;;;;;;0.10;0.10;;;21.30;99.90;;;;;;4921153;29;20067;-84
2022/08/30 04:10:11;;;;;;;0.47;0.47;;;21.30;99.90;;;;;;4922715;29;20028;-91
2022/08/30 04:12:37;;;;;;;0.00;0.00;;;21.30;99.90;;;;;;4921936;29;20031;-79
2022/08/30 04:15:04;;;;;;;1.05;1.05;;;21.30;99.90;;;;;;4915362;29;20104;-87
2022/08/30 04:17:30;;;;;;;0.08;0.08;;;19.70;99.90;;;;;;4919721;29;20024;-93
2022/08/30 04:19:56;;;;;;;0.10;0.10;;;21.30;99.90;;;;;;4915329;29;20083;-86
2022/08/30 04:22:21;;;;;;;0.10;0.10;;;21.30;99.90;;;;;;4911341;29;20027;-83
2022/08/30 04:24:47;;;;;;;0.00;0.00;;;21.20;99.90;;;;;;4910981;29;20039;-90
2022/08/30 04:27:13;;;;;;;1.52;1.48;;;;;;;;;;4909196;29;20431;-86
2022/08/30 04:29:39;;;;;;;0.00;0.00;;;;;;;;;;4911150;29;20084;-81
2022/08/30 04:32:05;;;;;;;1.95;1.85;;;21.30;99.90;;;;;;4910734;29;20035;-83
2022/08/30 04:34:32;;;;;;;0.95;0.95;;;21.20;99.90;;;;;;4909196;29;20110;-85
2022/08/30 04:36:57;;;;;;;0.10;0.10;;;21.10;99.90;;;;;;4915166;29;20032;-81
2022/08/30 04:39:23;;;;;;;0.10;0.10;;;21.10;99.90;;;;;;4916380;29;20522;-85
2022/08/30 04:41:49;;;;;;;0.10;0.10;;;21.20;99.90;;;;;;4901837;29;20024;-79
2022/08/30 04:44:16;;;;;;;0.55;0.55;;;21.00;99.90;;;;;;4916888;29;20032;-80
2022/08/30 04:46:41;;;;;;;4.78;4.50;;;21.10;99.90;;;;;;4919848;29;20024;-84
2022/08/30 04:49:07;;;;;;;0.10;0.10;;;21.10;99.90;;;;;;4915719;29;20539;-87
2022/08/30 04:51:33;;;;;;;0.00;0.00;;;21.10;99.90;;;;;;4913286;29;20080;-81
2022/08/30 04:53:59;;;;;;;0.10;0.10;;;21.20;99.90;;;;;;4912044;29;20080;-90
2022/08/30 04:56:25;;;;;;;5.03;4.68;;;21.20;99.90;;;;;;4911944;29;20028;-90
2022/08/30 04:58:53;;;;;;;0.52;0.52;;;21.20;99.90;;;;;;4912631;29;20035;-88
2022/08/30 05:01:23;;;;;;;0.30;0.30;;;21.30;99.90;;;;;;4913500;29;20043;-85
2022/08/30 05:03:50;;;;;;;0.10;0.10;;;21.30;99.90;;;;;;4891700;29;20058;-93
2022/08/30 05:06:17;;;;;;;0.10;0.10;;;21.20;99.90;;;;;;4877008;29;20063;-94
2022/08/30 05:08:43;;;;;;;0.47;0.47;;;;;;;;;;4892207;29;20387;-88
2022/08/30 05:11:14;;;;;;;0.10;0.10;;;21.30;99.90;;;;;;4896972;29;20531;-86
2022/08/30 05:13:40;;;;;;;2.65;1.45;;;21.40;99.90;;;;;;4910441;29;20035;-91
2022/08/30 05:16:07;;;;;;;0.10;0.10;;;21.30;99.90;;;;;;4908122;29;20028;-82
2022/08/30 05:18:33;;;;;;;0.10;0.10;;;21.40;99.90;;;;;;4907730;29;20027;-80
2022/08/30 05:21:16;;;;;;;1.52;1.45;;;21.40;99.90;;;;;;4907600;29;20059;-91
2022/08/30 05:23:42;;;;;;;0.45;0.45;;;;;;;;;;4909271;29;20032;-90
2022/08/30 05:26:14;;;;;;;0.20;0.20;;;21.50;99.90;;;;;;4907751;29;20027;-94
2022/08/30 05:28:40;;;;;;;1.10;1.05;;;21.30;99.90;;;;;;4908386;29;20567;-80
2022/08/30 05:31:23;;;;;;;0.75;0.75;;;21.40;99.90;;;;;;4910563;29;20036;-86
2022/08/30 05:33:50;;;;;;;0.80;0.80;;;21.40;99.90;;;;;;4895974;29;20080;-87
2022/08/30 05:36:20;;;;;;;0.10;0.10;;;21.40;99.90;;;;;;4893166;29;20032;-93
2022/08/30 05:38:52;;;;;;;0.10;0.10;;;21.50;99.90;;;;;;4892471;29;20350;-89
2022/08/30 05:41:19;;;;;;;0.10;0.10;;;21.50;99.90;;;;;;4905242;29;20028;-78
2022/08/30 05:43:45;;;;;;;0.10;0.10;;;21.50;99.90;;;;;;4897363;29;20030;-80
2022/08/30 05:46:18;;;;;;;0.52;0.52;;;21.50;99.90;;;;;;4910517;29;20028;-84
2022/08/30 05:48:45;;;;;;;0.10;0.10;;;21.50;99.90;;;;;;4905376;29;20338;-86
2022/08/30 05:51:16;;;;;;;0.52;0.52;;;21.50;99.90;;;;;;4909473;29;20546;-85
2022/08/30 05:53:48;;;;;;;0.30;0.30;;;21.40;99.90;;;;;;4900527;29;20164;-80
2022/08/30 05:56:30;;;;;;;0.30;0.30;;;21.50;99.90;;;;;;4916184;29;20123;-77
2022/08/30 05:58:55;;;;;;;0.10;0.10;;;21.40;99.90;;;;;;4900318;29;20032;-83
2022/08/30 06:01:55;;;;;;;0.10;0.10;;;21.70;99.90;;;;;;4916311;29;20464;-93
2022/08/30 06:04:20;;;;;;;1.17;1.17;;;21.50;99.90;;;;;;4842368;29;20072;-77
2022/08/30 06:06:55;;;;;;;0.10;0.10;;;21.50;99.90;;;;;;4841845;29;20030;-90
2022/08/30 06:09:28;;;;;;;0.10;0.10;;;21.50;99.90;;;;;;4840109;29;20066;-86
2022/08/30 06:11:54;;;;;;;0.17;0.17;;;21.90;99.90;;;;;;4839351;29;20026;-78
2022/08/30 06:14:20;;;;;;;1.45;1.45;;;21.50;99.90;;;;;;4819996;29;20290;-88
2022/08/30 06:16:47;;;;;;;0.95;0.95;;;23.10;99.90;;;;;;4826018;29;20089;-84
2022/08/30 06:19:16;;;;;;;0.10;0.10;;;21.50;99.90;;;;;;4840555;29;20490;-81
2022/08/30 06:21:49;;;;;;;0.00;0.00;;;21.30;99.90;;;;;;4825644;29;20168;-81
2022/08/30 06:24:18;;;;;;;0.10;0.10;;;21.50;99.90;;;;;;4843222;29;20075;-79
2022/08/30 06:26:46;;;;;;;0.00;0.00;;;21.40;99.90;;;;;;4840612;29;20042;-80
2022/08/30 06:29:17;;;;;;;0.47;0.47;;;21.50;99.90;;;;;;4838622;29;20604;-82
2022/08/30 06:31:43;;;;;;;0.10;0.10;;;22.00;99.90;;;;;;4842654;29;20134;-77
2022/08/30 06:34:09;;;;;;;0.13;0.13;;;21.60;99.90;;;;;;4839599;29;20034;-91
2022/08/30 06:36:37;;;;;;;0.10;0.10;;;21.60;99.90;;;;;;4847188;29;20352;-82
2022/08/30 06:39:04;;;;;;;2.38;1.38;;;22.00;99.90;;;;;;4831574;29;20030;-86
2022/08/30 06:41:32;;;;;;;0.20;0.20;;;22.00;99.90;;;;;;4901534;29;20260;-83
2022/08/30 06:44:00;;;;;;;0.10;0.10;;;21.90;99.90;;;;;;4917700;29;20028;-86
2022/08/30 06:46:29;;;;;;;0.00;0.00;;;21.70;99.90;;;;;;4919123;29;20025;-81
2022/08/30 06:48:56;;;;;;;0.03;0.03;;;21.90;99.90;;;;;;4920133;29;20267;-87
2022/08/30 06:51:28;;;;;;;0.38;0.38;;;22.20;99.90;;;;;;4924301;29;20087;-85
2022/08/30 06:53:55;;;;;;;0.20;0.20;;;22.40;99.90;;;;;;4922864;29;20048;-78
2022/08/30 06:56:22;;;;;;;2.17;1.27;;;22.40;99.90;;;;;;4905580;29;20176;-88
2022/08/30 06:58:49;;;;;;;0.43;0.30;;;22.00;99.90;;;;;;4921506;29;20056;-78
2022/08/30 07:01:20;;;;;;;0.00;0.00;;;21.90;99.90;;;;;;4902068;29;20451;-94
2022/08/30 07:03:46;;;;;;;0.03;0.03;;;21.90;99.90;;;;;;4912900;29;20297;-94
2022/08/30 07:06:12;;;;;;;0.75;0.75;;;21.90;99.90;;;;;;4914788;29;20114;-89
2022/08/30 07:08:41;;;;;;;0.10;0.10;;;22.00;99.90;;;;;;4901117;29;20422;-90
2022/08/30 07:11:07;;;;;;;0.20;0.20;;;21.80;99.90;;;;;;4918202;29;20208;-81
2022/08/30 07:13:34;;;;;;;0.15;0.15;;;22.00;99.90;;;;;;4913350;29;20583;-80
2022/08/30 07:16:00;;;;;;;0.10;0.10;;;20.40;99.90;;;;;;4912813;29;20036;-85
2022/08/30 07:21:24;;;;;;;0.10;0.10;;;21.20;99.90;;;;;;4920976;29;20039;-82
2022/08/30 07:23:59;;;;;;;0.20;0.20;;;21.20;99.90;;;;;;4918051;29;20043;-79
2022/08/30 07:26:38;;;;;;;0.45;0.45;;;22.30;99.90;;;;;;4912510;29;20686;-83
2022/08/30 07:29:05;;;;;;;0.10;0.10;;;21.30;99.90;;;;;;4897286;29;20051;-84
2022/08/30 07:31:33;;;;;;;0.10;0.10;;;21.60;99.90;;;;;;4918735;29;20283;-82
2022/08/30 07:33:59;;;;;;;1.13;1.13;;;21.40;99.90;;;;;;4920133;29;20028;-83
2022/08/30 07:36:25;;;;;;;1.38;1.27;;;21.40;99.90;;;;;;4915387;29;20079;-82
2022/08/30 07:38:53;;;;;;;0.17;0.17;;;21.40;99.90;;;;;;4913549;29;20024;-94
2022/08/30 07:41:24;;;;;;;0.00;0.00;;;21.30;99.90;;;;;;4919526;29;20052;-88
2022/08/30 07:43:52;;;;;;;0.10;0.10;;;21.10;99.90;;;;;;4914267;29;20628;-82
2022/08/30 07:46:19;;;;;;;2.05;1.80;;;21.10;99.90;;;;;;4911129;29;20156;-80
2022/08/30 07:48:46;;;;;;;0.35;0.35;;;20.80;99.90;;;;;;4914779;29;20020;-85
2022/08/30 07:51:15;;;;;;;0.32;0.32;;;20.90;99.90;;;;;;4898569;29;20089;-95
2022/08/30 07:53:41;;;;;;;1.13;1.02;;;20.90;99.90;;;;;;4921150;29;20083;-84
2022/08/30 07:56:07;;;;;;;0.10;0.10;;;21.00;99.90;;;;;;4899881;29;20192;-87
2022/08/30 07:58:34;;;;;;;0.10;0.10;;;21.30;99.90;;;;;;4912893;29;20094;-88
2022/08/30 08:01:01;;;;;;;0.43;0.43;;;21.10;99.90;;;;;;4914761;29;20024;-80
2022/08/30 08:03:28;;;;;;;0.03;0.03;;;20.80;99.90;;;;;;4919799;29;20055;-77
2022/08/30 08:05:55;;;;;;;1.27;1.17;;;21.10;99.90;;;;;;4910292;29;20693;-79
2022/08/30 08:08:21;;;;;;;0.00;0.00;;;21.10;99.90;;;;;;4893171;29;20127;-78
2022/08/30 08:10:48;;;;;;;0.10;0.10;;;21.30;99.90;;;;;;4910892;29;20035;-84
2022/08/30 08:13:13;;;;;;;0.10;0.10;;;21.30;99.90;;;;;;4911300;29;20024;-92
2022/08/30 08:15:39;;;;;;;0.75;0.75;;;21.20;99.90;;;;;;4896006;29;20025;-78
2022/08/30 08:18:06;;;;;;;0.20;0.20;;;21.50;99.90;;;;;;4912444;29;20020;-81
2022/08/30 08:20:33;;;;;;;0.10;0.10;;;21.60;99.90;;;;;;4914432;29;20574;-77
2022/08/30 08:23:00;;;;;;;0.30;0.30;;;21.30;99.90;;;;;;4897516;29;20084;-80
2022/08/30 08:25:27;;;;;;;0.30;0.30;;;22.00;99.90;;;;;;4896653;29;20024;-81
2022/08/30 08:27:53;;;;;;;0.10;0.10;;;21.60;99.90;;;;;;4913175;29;20035;-79
2022/08/30 08:30:22;;;;;;;0.10;0.10;;;21.50;99.90;;;;;;4881613;29;20044;-76
2022/08/30 08:32:52;;;;;;;0.10;0.10;;;21.60;99.90;;;;;;4913542;29;20032;-80
2022/08/30 08:35:17;;;;;;;0.10;0.10;;;21.70;99.90;;;;;;4914243;29;20036;-84
2022/08/30 08:37:43;;;;;;;1.27;1.20;;;21.90;99.90;;;;;;4912682;29;20032;-90
2022/08/30 08:40:15;;;;;;;0.03;0.03;;;21.80;99.90;;;;;;4909831;29;20835;-76
2022/08/30 08:42:49;;;;;;;1.20;1.10;;;21.90;99.90;;;;;;4910592;29;20480;-83
2022/08/30 08:45:31;;;;;;;0.00;0.00;;;25.30;99.90;;;;;;4908347;29;20028;-85
2022/08/30 08:48:31;;;;;;;0.10;0.10;;;21.50;99.90;;;;;;4908491;29;20028;-92
2022/08/30 08:53:50;;;;;;;0.10;0.10;;;21.70;99.90;;;;;;4910008;29;20095;-80
2022/08/30 08:56:18;;;;;;;0.22;0.22;;;21.70;99.90;;;;;;4909496;29;20032;-78
2022/08/30 08:58:47;;;;;;;0.10;0.10;;;21.90;99.90;;;;;;4891952;29;20028;-79
2022/08/30 09:01:16;;;;;;;0.17;0.17;;;22.00;99.90;;;;;;4908074;29;20378;-78
2022/08/30 09:03:43;;;;;;;0.00;0.00;;;22.00;99.90;;;;;;4907986;29;20317;-85
2022/08/30 09:06:21;;;;;;;0.65;0.65;;;21.70;99.90;;;;;;4913198;29;20040;-96
2022/08/30 09:08:47;;;;;;;1.55;0.90;;;22.10;99.90;;;;;;4893610;29;20816;-79
2022/08/30 09:11:25;;;;;;;0.82;0.82;;;20.60;99.90;;;;;;4910566;29;20108;-93
2022/08/30 09:13:50;;;;;;;0.10;0.10;;;22.30;99.90;;;;;;4890320;29;20020;-88
2022/08/30 09:16:47;;;;;;;0.03;0.03;;;22.20;99.90;;;;;;4908799;29;20087;-84
2022/08/30 09:19:44;;;;;;;0.35;0.35;;;22.30;99.90;;;;;;4914374;29;20044;-86
2022/08/30 09:22:31;;;;;;;1.08;0.57;;;21.70;99.90;;;;;;4913729;29;20024;-87
2022/08/30 09:25:06;;;;;;;0.30;0.30;;;22.30;99.90;;;;;;4907733;29;20114;-83
2022/08/30 09:27:37;;;;;;;0.38;0.38;;;22.70;99.90;;;;;;4888110;29;20027;-83
2022/08/30 09:30:22;;;;;;;0.00;0.00;;;22.60;99.90;;;;;;4906834;29;20316;-76
2022/08/30 09:32:58;;;;;;;1.92;1.75;;;22.20;99.90;;;;;;4890592;29;20020;-92
2022/08/30 09:35:25;;;;;;;0.40;0.40;;;22.50;99.90;;;;;;4907882;29;20016;-91
2022/08/30 09:38:10;;;;;;;0.10;0.10;;;22.60;99.90;;;;;;4908342;29;20056;-95
2022/08/30 09:40:40;;;;;;;0.40;0.40;;;25.60;99.90;;;;;;4914323;29;20057;-79
2022/08/30 09:43:23;;;;;;;0.00;0.00;;;22.80;99.90;;;;;;4915096;29;20104;-82
2022/08/30 09:46:09;;;;;;;0.20;0.20;;;23.10;99.90;;;;;;4900453;29;20013;-85
2022/08/30 09:48:41;;;;;;;0.10;0.10;;;21.40;99.90;;;;;;4917441;29;20032;-82
2022/08/30 09:51:09;;;;;;;0.20;0.20;;;23.10;99.90;;;;;;4902393;29;20030;-80
2022/08/30 09:54:14;;;;;;;0.50;0.50;;;23.20;99.90;;;;;;4916218;29;20440;-81
2022/08/30 09:56:49;;;;;;;1.48;1.38;;;23.40;99.90;;;;;;4894462;29;20419;-81
2022/08/30 09:59:42;;;;;;;0.13;0.13;;;23.60;99.90;;;;;;4913544;29;20056;-81
2022/08/30 10:02:41;;;;;;;0.50;0.47;;;24.00;99.90;;;;;;4916652;29;20025;-80
2022/08/30 10:05:16;;;;;;;0.10;0.10;;;22.90;99.90;;;;;;4899871;29;20020;-79
2022/08/30 10:07:52;;;;;;;0.10;0.10;;;24.60;99.90;;;;;;4921084;29;20040;-83
2022/08/30 10:10:34;;;;;;;0.15;0.15;;;24.50;99.90;;;;;;4912804;29;20503;-78
2022/08/30 10:13:45;;;;;;;2.08;1.92;;;24.60;99.90;;;;;;4914572;29;20083;-83
2022/08/30 10:16:38;;;;;;;0.70;0.70;;;24.80;99.90;;;;;;4892059;29;20119;-88
2022/08/30 10:19:17;;;;;;;0.10;0.10;;;25.10;99.90;;;;;;4909094;29;20039;-80
2022/08/30 10:21:56;;;;;;;1.23;0.73;;;25.20;99.90;;;;;;4918929;29;20032;-78
2022/08/30 10:24:32;;;;;;;0.00;0.00;;;24.80;99.90;;;;;;4901972;29;20024;-82
2022/08/30 10:27:12;;;;;;;0.17;0.17;;;24.60;99.90;;;;;;4904807;29;20618;-78
2022/08/30 10:29:48;;;;;;;0.10;0.10;;;22.00;99.90;;;;;;4920464;29;20044;-81
2022/08/30 10:32:27;;;;;;;0.20;0.20;;;24.50;99.90;;;;;;4913072;29;20093;-87
2022/08/30 10:34:53;;;;;;;0.28;0.28;;;24.50;99.90;;;;;;4911759;29;20036;-79
2022/08/30 10:37:24;;;;;;;0.65;0.65;;;24.90;99.90;;;;;;4894037;29;20040;-90
2022/08/30 10:39:59;;;;;;;1.20;0.73;;;24.40;99.90;;;;;;4908599;29;20032;-85
2022/08/30 10:42:32;;;;;;;0.10;0.10;;;25.30;99.90;;;;;;4908217;29;20032;-88
2022/08/30 10:45:03;;;;;;;0.55;0.55;;;26.10;99.90;;;;;;4908269;29;20115;-91
2022/08/30 10:47:42;;;;;;;0.00;0.00;;;25.60;99.90;;;;;;4892005;29;20029;-77
2022/08/30 10:50:32;;;;;;;0.10;0.10;;;25.10;99.90;;;;;;4904520;29;20050;-78
2022/08/30 10:53:22;;;;;;;1.55;1.45;;;24.90;99.90;;;;;;4887882;29;20107;-77
2022/08/30 10:55:59;;;;;;;0.10;0.10;;;26.60;99.90;;;;;;4906119;29;20020;-88
2022/08/30 10:58:25;;;;;;;0.15;0.15;;;26.60;99.90;;;;;;4889483;29;20646;-91
2022/08/30 11:01:06;;;;;;;1.67;1.35;;;24.30;98.80;;;;;;4907398;29;20080;-81
2022/08/30 11:03:56;;;;;;;0.70;0.57;;;26.60;99.40;;;;;;4892040;29;20137;-80
2022/08/30 11:06:25;;;;;;;0.00;0.00;;;26.70;99.20;;;;;;4909341;29;20092;-82
2022/08/30 11:09:21;;;;;;;0.00;0.00;;;27.10;99.10;;;;;;4891985;29;20072;-87
2022/08/30 11:12:02;;;;;;;0.52;0.52;;;26.60;99.50;;;;;;4831433;29;20034;-93
2022/08/30 11:14:29;;;;;;;0.00;0.00;;;26.50;99.40;;;;;;4831058;29;20102;-83
2022/08/30 11:16:58;;;;;;;1.35;1.13;;;26.60;99.60;;;;;;4831854;29;20034;-90
2022/08/30 11:19:27;;;;;;;0.00;0.00;;;26.80;99.10;;;;;;4833785;29;20083;-85
2022/08/30 11:22:28;;;;;;;0.10;0.10;;;26.80;99.20;;;;;;4817866;29;20033;-84
2022/08/30 11:24:58;;;;;;;0.17;0.17;;;26.70;99.30;;;;;;4833356;29;20034;-92
2022/08/30 11:27:45;;;;;;;0.00;0.00;;;26.80;99.40;;;;;;4833085;29;20604;-79
2022/08/30 11:30:25;;;;;;;0.10;0.10;;;27.00;99.90;;;;;;4824504;29;20050;-79
2022/08/30 11:32:59;;;;;;;1.25;1.15;;;26.70;99.90;;;;;;4842981;29;20089;-84
2022/08/30 11:35:41;;;;;;;1.10;0.52;;;26.40;99.90;;;;;;4841813;29;20045;-77
2022/08/30 11:38:19;;;;;;;0.13;0.13;;;25.10;99.90;;;;;;4843139;29;20052;-83
2022/08/30 11:40:48;;;;;;;0.30;0.30;;;25.90;99.90;;;;;;4826130;29;20033;-79
2022/08/30 11:43:35;;;;;;;1.13;0.30;;;25.80;99.90;;;;;;4837046;29;20145;-79
2022/08/30 11:46:13;;;;;;;0.25;0.25;;;25.90;99.90;;;;;;4848606;29;20075;-83
2022/08/30 11:48:50;;;;;;;0.00;0.00;;;26.00;99.90;;;;;;4872440;29;20036;-75
2022/08/30 11:51:44;;;;;;;0.30;0.30;;;25.90;99.90;;;;;;4924763;29;20024;-86
2022/08/30 11:54:47;;;;;;;0.10;0.10;;;26.20;99.90;;;;;;4921403;29;20020;-85
2022/08/30 11:57:44;;;;;;;0.13;0.13;;;26.00;98.90;;;;;;4923721;29;20036;-82
2022/08/30 12:00:25;;;;;;;0.10;0.10;;;25.90;99.90;;;;;;4932541;29;20020;-77
2022/08/30 12:03:08;;;;;;;0.00;0.00;;;25.90;99.90;;;;;;4904681;29;20091;-87
2022/08/30 12:05:44;;;;;;;0.00;0.00;;;26.20;99.90;;;;;;4898800;29;20032;-88
2022/08/30 12:08:34;;;;;;;0.05;0.05;;;26.70;99.90;;;;;;4894851;29;20665;-92
2022/08/30 12:11:09;;;;;;;0.40;0.40;;;27.40;99.90;;;;;;4894064;29;20041;-90
2022/08/30 12:13:40;;;;;;;0.00;0.00;;;31.00;99.90;;;;;;4895144;29;20111;-88
2022/08/30 12:16:21;;;;;;;0.10;0.10;;;27.80;99.00;;;;;;4908285;29;20032;-81
2022/08/30 12:19:20;;;;;;;0.85;0.47;;;26.40;97.70;;;;;;4895199;29;20016;-80
2022/08/30 12:22:18;;;;;;;0.10;0.10;;;29.20;98.70;;;;;;4830276;29;20054;-80
2022/08/30 12:25:39;;;;;;;0.00;0.00;;;29.10;99.90;;;;;;4734650;30;20813;-80
2022/08/30 12:28:28;;;;;;;0.08;0.08;;;29.40;99.60;;;;;;4707563;30;20220;-81
2022/08/30 12:31:32;;;;;;;0.30;0.30;;;28.80;99.90;;;;;;4723115;30;20060;-80
2022/08/30 12:34:05;;;;;;;0.08;0.08;;;28.10;99.90;;;;;;4674997;30;20042;-81
2022/08/30 12:37:09;;;;;;;0.00;0.00;;;26.50;99.90;;;;;;4687580;30;20034;-80
2022/08/30 12:39:43;;;;;;;0.00;0.00;;;26.10;99.90;;;;;;4643605;31;20043;-81
2022/08/30 12:42:25;;;;;;;0.68;0.43;;;26.50;99.90;;;;;;4631421;31;20183;-81
2022/08/30 12:45:33;;;;;;;;;;;;;;;;;;;;;
2022/08/30 12:48:17;;;;;;;0.00;0.00;;;25.30;99.90;;;;;;4632125;31;20106;-80
2022/08/30 12:50:59;;;;;;;0.20;0.20;;;25.00;99.90;;;;;;4634163;30;20151;-80
2022/08/30 12:53:45;;;;;;;0.00;0.00;;;25.00;99.90;;;;;;4632146;31;20024;-85
2022/08/30 12:56:17;;;;;;;0.32;0.32;;;25.00;99.90;;;;;;4614988;30;20287;-81
2022/08/30 12:58:49;;;;;;;0.08;0.08;;;25.00;99.90;;;;;;4625900;30;20037;-84
2022/08/30 13:01:32;;;;;;;0.00;0.00;;;23.80;99.90;;;;;;4687522;30;20029;-85
2022/08/30 13:04:20;;;;;;;0.20;0.20;;;24.90;99.90;;;;;;4704960;30;20278;-84
2022/08/30 13:07:00;;;;;;;0.00;0.00;;;25.10;99.90;;;;;;4756453;30;20132;-87
2022/08/30 13:09:41;;;;;;;0.00;0.00;;;25.00;99.90;;;;;;4749107;29;20616;-84
2022/08/30 13:12:38;;;;;;;0.00;0.00;;;25.10;99.90;;;;;;4810353;29;20063;-79
2022/08/30 13:15:16;;;;;;;0.00;0.00;;;25.10;99.90;;;;;;4734302;29;20040;-84
2022/08/30 13:18:13;;;;;;;1.05;0.35;;;25.30;99.90;;;;;;4827399;29;20046;-81
2022/08/30 13:20:45;;;;;;;0.00;0.00;;;25.30;99.90;;;;;;4827076;29;20030;-81
2022/08/30 13:23:29;;;;;;;0.10;0.10;;;25.80;99.90;;;;;;4811810;29;20129;-80